createdAt,value
2022-10-18T00:02:28.320Z,17.90
2022-10-18T00:05:19.525Z,17.80
2022-10-18T00:08:10.741Z,17.80
2022-10-18T00:11:01.777Z,17.70
2022-10-18T00:13:53.043Z,17.70
2022-10-18T00:16:44.066Z,17.70
2022-10-18T00:22:14.401Z,17.60
2022-10-18T00:27:48.192Z,17.60
2022-10-18T00:30:39.364Z,17.60
2022-10-18T00:33:30.417Z,17.60
2022-10-18T00:36:22.096Z,17.60
2022-10-18T00:41:56.901Z,17.50
2022-10-18T00:45:16.425Z,17.50
2022-10-18T00:48:07.970Z,17.50
2022-10-18T00:50:58.867Z,17.50
2022-10-18T00:53:50.477Z,17.50
2022-10-18T00:56:43.551Z,17.50
2022-10-18T00:59:36.202Z,17.40
2022-10-18T01:02:29.657Z,17.40
2022-10-18T01:05:22.228Z,17.50
2022-10-18T01:08:32.615Z,17.50
2022-10-18T01:11:55.635Z,17.40
2022-10-18T01:14:50.852Z,17.40
2022-10-18T01:17:46.231Z,17.40
2022-10-18T01:21:02.619Z,17.40
2022-10-18T01:27:23.356Z,17.40
2022-10-18T01:30:44.433Z,17.30
2022-10-18T01:33:39.792Z,17.30
2022-10-18T01:36:34.116Z,17.10
2022-10-18T01:39:27.984Z,17.00
2022-10-18T01:42:21.560Z,16.90
2022-10-18T01:45:15.713Z,16.90
2022-10-18T01:48:07.763Z,16.90
2022-10-18T01:50:59.513Z,16.90
2022-10-18T01:53:50.722Z,16.90
2022-10-18T01:56:46.193Z,16.90
2022-10-18T01:59:43.127Z,16.90
2022-10-18T02:02:44.015Z,16.80
2022-10-18T02:05:38.991Z,16.80
2022-10-18T02:08:33.944Z,16.80
2022-10-18T02:11:26.190Z,16.80
2022-10-18T02:14:19.786Z,16.80
2022-10-18T02:17:13.779Z,16.80
2022-10-18T02:22:46.119Z,16.80
2022-10-18T02:25:38.481Z,16.80
2022-10-18T02:28:29.765Z,16.80
2022-10-18T02:31:23.828Z,16.70
2022-10-18T02:36:57.973Z,16.60
2022-10-18T02:42:30.310Z,16.40
2022-10-18T02:45:22.241Z,16.40
2022-10-18T02:48:13.627Z,16.40
2022-10-18T02:51:04.398Z,16.50
2022-10-18T02:53:55.405Z,16.40
2022-10-18T02:56:46.185Z,16.40
2022-10-18T03:02:15.233Z,16.40
2022-10-18T03:05:06.994Z,16.40
2022-10-18T03:07:59.630Z,16.40
2022-10-18T03:10:50.457Z,16.40
2022-10-18T03:13:41.534Z,16.20
2022-10-18T03:16:33.957Z,16.20
2022-10-18T03:19:25.145Z,16.10
2022-10-18T03:22:16.186Z,16.10
2022-10-18T03:25:08.037Z,16.00
2022-10-18T03:27:59.121Z,16.00
2022-10-18T03:30:50.145Z,16.10
2022-10-18T03:33:41.074Z,16.10
2022-10-18T03:36:33.946Z,16.10
2022-10-18T03:39:24.867Z,16.10
2022-10-18T03:42:16.232Z,16.10
2022-10-18T03:47:47.073Z,16.10
2022-10-18T03:50:37.919Z,16.10
2022-10-18T03:53:28.883Z,16.00
2022-10-18T03:56:19.924Z,15.90
2022-10-18T03:59:11.169Z,15.90
2022-10-18T04:02:02.558Z,15.80
2022-10-18T04:07:32.857Z,15.60
2022-10-18T04:13:02.302Z,15.60
2022-10-18T04:18:31.921Z,15.60
2022-10-18T04:24:03.610Z,15.70
2022-10-18T04:26:54.537Z,15.70
2022-10-18T04:32:29.441Z,15.60
2022-10-18T04:38:05.329Z,15.60
2022-10-18T04:40:56.437Z,15.60
2022-10-18T04:43:47.332Z,15.60
2022-10-18T04:52:33.871Z,15.70
2022-10-18T04:55:24.844Z,15.70
2022-10-18T04:58:16.273Z,15.70
2022-10-18T05:01:08.659Z,15.70
2022-10-18T05:06:40.379Z,15.70
2022-10-18T05:12:12.082Z,15.70
2022-10-18T05:17:42.272Z,15.70
2022-10-18T05:23:16.433Z,15.70
2022-10-18T05:26:08.878Z,15.60
2022-10-18T05:29:00.397Z,15.60
2022-10-18T05:31:51.998Z,15.60
2022-10-18T05:34:43.314Z,15.60
2022-10-18T05:37:34.559Z,15.60
2022-10-18T05:43:05.562Z,15.50
2022-10-18T05:45:56.836Z,15.60
2022-10-18T05:48:52.006Z,15.60
2022-10-18T05:51:43.297Z,15.60
2022-10-18T05:57:14.906Z,15.60
2022-10-18T06:00:09.378Z,15.60
2022-10-18T06:03:01.781Z,15.60
2022-10-18T06:05:52.896Z,15.60
2022-10-18T06:08:45.571Z,15.60
2022-10-18T06:11:38.300Z,15.60
2022-10-18T06:14:29.550Z,15.60
2022-10-18T06:17:20.689Z,15.60
2022-10-18T06:20:14.311Z,15.50
2022-10-18T06:23:05.726Z,15.60
2022-10-18T06:26:00.413Z,15.60
2022-10-18T06:28:51.952Z,15.60
2022-10-18T06:31:43.124Z,15.60
2022-10-18T06:37:17.571Z,15.60
2022-10-18T06:40:12.421Z,15.70
2022-10-18T06:45:49.319Z,15.70
2022-10-18T06:48:41.248Z,15.80
2022-10-18T06:51:33.119Z,15.80
2022-10-18T06:54:24.465Z,15.80
2022-10-18T06:57:15.900Z,15.90
2022-10-18T07:02:50.224Z,15.90
2022-10-18T07:08:21.553Z,16.00
2022-10-18T07:11:16.153Z,16.10
2022-10-18T07:14:07.332Z,16.10
2022-10-18T07:17:01.210Z,16.20
2022-10-18T07:22:44.393Z,16.30
2022-10-18T07:25:35.816Z,16.30
2022-10-18T07:28:26.975Z,16.40
2022-10-18T07:31:18.821Z,16.40
2022-10-18T07:34:12.888Z,16.50
2022-10-18T07:37:04.992Z,16.60
2022-10-18T07:39:55.945Z,16.60
2022-10-18T07:42:47.223Z,16.60
2022-10-18T07:48:16.699Z,16.70
2022-10-18T07:51:08.289Z,16.80
2022-10-18T07:53:59.339Z,16.80
2022-10-18T07:56:50.452Z,16.90
2022-10-18T07:59:41.685Z,16.90
2022-10-18T08:02:32.924Z,16.90
2022-10-18T08:08:04.351Z,17.00
2022-10-18T08:10:54.809Z,17.10
2022-10-18T08:13:46.346Z,17.10
2022-10-18T08:16:37.211Z,17.20
2022-10-18T08:19:28.258Z,17.20
2022-10-18T08:22:19.396Z,17.20
2022-10-18T08:27:49.425Z,17.40
2022-10-18T08:30:41.122Z,17.40
2022-10-18T08:33:32.118Z,17.50
2022-10-18T08:36:23.285Z,17.60
2022-10-18T08:39:14.364Z,17.60
2022-10-18T08:42:38.972Z,17.70
2022-10-18T08:45:42.000Z,17.80
2022-10-18T08:48:26.895Z,17.80
2022-10-18T08:51:20.973Z,17.90
2022-10-18T08:54:15.931Z,18.00
2022-10-18T08:57:10.361Z,18.10
2022-10-18T09:00:02.833Z,18.10
2022-10-18T09:03:06.499Z,18.20
2022-10-18T09:06:02.429Z,18.30
2022-10-18T09:09:06.931Z,18.30
2022-10-18T09:12:03.608Z,18.30
2022-10-18T09:15:15.077Z,18.50
2022-10-18T09:18:22.009Z,18.50
2022-10-18T09:21:20.725Z,18.50
2022-10-18T09:24:15.411Z,18.60
2022-10-18T09:27:09.730Z,18.70
2022-10-18T09:32:48.109Z,18.80
2022-10-18T09:35:43.053Z,18.80
2022-10-18T09:38:38.151Z,18.90
2022-10-18T09:44:14.021Z,19.00
2022-10-18T09:47:08.134Z,19.20
2022-10-18T09:50:02.225Z,19.20
2022-10-18T09:52:56.726Z,19.30
2022-10-18T09:55:56.807Z,19.30
2022-10-18T09:58:49.067Z,19.40
2022-10-18T10:01:40.457Z,19.50
2022-10-18T10:04:31.902Z,19.50
2022-10-18T10:07:29.857Z,19.60
2022-10-18T10:10:22.333Z,19.60
2022-10-18T10:13:21.462Z,19.70
2022-10-18T10:16:12.775Z,19.80
2022-10-18T10:19:04.169Z,19.80
2022-10-18T10:22:08.539Z,19.90
2022-10-18T10:25:00.709Z,20.00
2022-10-18T10:27:51.959Z,20.10
2022-10-18T10:30:43.196Z,20.10
2022-10-18T10:33:37.131Z,20.20
2022-10-18T10:36:28.196Z,20.20
2022-10-18T10:39:21.390Z,20.30
2022-10-18T10:42:16.117Z,20.30
2022-10-18T10:45:13.899Z,20.40
2022-10-18T10:48:08.545Z,20.50
2022-10-18T10:51:03.093Z,20.60
2022-10-18T10:54:00.405Z,20.60
2022-10-18T10:56:57.998Z,20.60
2022-10-18T10:59:51.255Z,20.60
2022-10-18T11:02:50.108Z,20.70
2022-10-18T11:05:44.972Z,20.70
2022-10-18T11:08:39.322Z,20.70
2022-10-18T11:11:33.696Z,20.80
2022-10-18T11:14:28.270Z,20.90
2022-10-18T11:17:25.654Z,20.90
2022-10-18T11:20:23.744Z,21.00
2022-10-18T11:23:14.775Z,21.10
2022-10-18T11:26:22.372Z,21.20
2022-10-18T11:29:16.710Z,21.20
2022-10-18T11:32:12.227Z,21.30
2022-10-18T11:35:15.024Z,21.30
2022-10-18T11:38:17.024Z,21.40
2022-10-18T11:41:23.517Z,21.50
2022-10-18T11:44:19.112Z,21.60
2022-10-18T11:47:15.133Z,21.70
2022-10-18T11:50:16.376Z,21.60
2022-10-18T11:53:13.779Z,21.60
2022-10-18T11:56:09.283Z,21.70
2022-10-18T11:59:11.173Z,21.70
2022-10-18T12:02:17.561Z,21.80
2022-10-18T12:05:22.993Z,21.90
2022-10-18T12:08:07.277Z,21.90
2022-10-18T12:11:05.863Z,22.10
2022-10-18T12:13:57.954Z,22.10
2022-10-18T12:16:52.284Z,22.10
2022-10-18T12:19:43.726Z,22.20
2022-10-18T12:22:39.475Z,22.30
2022-10-18T12:25:32.290Z,22.30
2022-10-18T12:28:28.117Z,22.30
2022-10-18T12:31:25.619Z,22.20
2022-10-18T12:34:32.166Z,22.30
2022-10-18T12:37:58.305Z,22.30
2022-10-18T12:40:53.145Z,22.40
2022-10-18T12:43:47.317Z,22.40
2022-10-18T12:46:50.335Z,22.50
2022-10-18T12:49:44.019Z,22.60
2022-10-18T12:52:37.841Z,22.60
2022-10-18T12:55:35.081Z,22.70
2022-10-18T12:58:33.120Z,22.90
2022-10-18T13:01:25.625Z,23.00
2022-10-18T13:04:36.297Z,23.00
2022-10-18T13:07:45.927Z,22.90
2022-10-18T13:10:38.423Z,23.00
2022-10-18T13:13:50.832Z,23.10
2022-10-18T13:16:46.302Z,23.20
2022-10-18T13:19:40.909Z,23.20
2022-10-18T13:22:40.877Z,23.30
2022-10-18T13:25:36.758Z,23.40
2022-10-18T13:28:32.891Z,23.40
2022-10-18T13:31:27.227Z,23.50
2022-10-18T13:34:30.299Z,23.60
2022-10-18T13:37:26.681Z,23.60
2022-10-18T13:40:25.248Z,23.60
2022-10-18T13:44:09.763Z,23.60
2022-10-18T13:47:36.119Z,23.70
2022-10-18T13:50:35.944Z,23.80
2022-10-18T13:53:49.711Z,23.80
2022-10-18T13:56:53.252Z,23.90
2022-10-18T14:00:13.051Z,23.90
2022-10-18T14:03:38.041Z,23.90
2022-10-18T14:06:15.193Z,24.00
2022-10-18T14:09:19.501Z,24.00
2022-10-18T14:12:06.426Z,24.10
2022-10-18T14:15:01.822Z,24.10
2022-10-18T14:18:00.122Z,24.20
2022-10-18T14:21:12.761Z,24.80
2022-10-18T14:23:48.795Z,24.80
2022-10-18T14:29:31.641Z,24.50
2022-10-18T14:32:32.150Z,24.40
2022-10-18T14:35:33.743Z,24.40
2022-10-18T14:38:18.417Z,24.30
2022-10-18T14:41:21.867Z,24.30
2022-10-18T14:44:21.536Z,24.30
2022-10-18T14:47:18.405Z,24.30
2022-10-18T14:50:25.444Z,24.30
2022-10-18T14:53:21.148Z,24.30
2022-10-18T14:56:19.561Z,24.20
2022-10-18T14:59:16.612Z,24.20
2022-10-18T15:02:13.968Z,24.20
2022-10-18T15:05:11.290Z,24.10
2022-10-18T15:08:03.001Z,24.10
2022-10-18T15:10:55.182Z,24.10
2022-10-18T15:13:50.227Z,24.10
2022-10-18T15:16:42.299Z,24.00
2022-10-18T15:19:36.370Z,24.10
2022-10-18T15:22:32.889Z,24.10
2022-10-18T15:25:27.986Z,24.20
2022-10-18T15:28:26.595Z,24.20
2022-10-18T15:31:25.150Z,24.40
2022-10-18T15:34:20.815Z,25.60
2022-10-18T15:37:33.548Z,26.20
2022-10-18T15:40:39.091Z,26.80
2022-10-18T15:43:38.013Z,26.80
2022-10-18T15:46:33.883Z,26.90
2022-10-18T15:50:03.433Z,27.00
2022-10-18T15:52:54.903Z,27.30
2022-10-18T15:55:52.300Z,27.20
2022-10-18T15:58:46.367Z,26.90
2022-10-18T16:01:44.852Z,26.00
2022-10-18T16:04:37.544Z,25.30
2022-10-18T16:07:29.078Z,24.70
2022-10-18T16:10:20.843Z,24.30
2022-10-18T16:13:12.620Z,24.00
2022-10-18T16:16:04.313Z,23.80
2022-10-18T16:18:55.874Z,23.70
2022-10-18T16:21:47.644Z,23.50
2022-10-18T16:24:39.110Z,23.30
2022-10-18T16:27:30.587Z,23.30
2022-10-18T16:30:23.360Z,23.20
2022-10-18T16:33:19.183Z,23.10
2022-10-18T16:36:09.586Z,23.00
2022-10-18T16:39:04.556Z,22.90
2022-10-18T16:41:55.995Z,22.70
2022-10-18T16:44:48.525Z,22.40
2022-10-18T16:47:40.200Z,22.30
2022-10-18T16:50:34.663Z,22.20
2022-10-18T16:53:25.332Z,22.00
2022-10-18T16:56:18.562Z,21.90
2022-10-18T16:59:11.830Z,21.70
2022-10-18T17:02:04.590Z,21.70
2022-10-18T17:04:55.876Z,21.60
2022-10-18T17:07:48.544Z,21.50
2022-10-18T17:10:39.996Z,21.40
2022-10-18T17:13:31.126Z,21.40
2022-10-18T17:19:08.462Z,21.30
2022-10-18T17:22:02.564Z,21.20
2022-10-18T17:24:52.679Z,21.10
2022-10-18T17:27:43.814Z,21.00
2022-10-18T17:30:35.224Z,20.90
2022-10-18T17:33:26.392Z,20.90
2022-10-18T17:36:17.478Z,20.80
2022-10-18T17:39:08.819Z,20.60
2022-10-18T17:42:00.406Z,20.50
2022-10-18T17:44:54.243Z,20.40
2022-10-18T17:47:44.159Z,20.40
2022-10-18T17:53:22.822Z,20.40
2022-10-18T17:56:14.810Z,20.30
2022-10-18T17:59:06.127Z,20.20
2022-10-18T18:04:36.596Z,20.10
2022-10-18T18:07:27.560Z,20.10
2022-10-18T18:10:19.066Z,20.10
2022-10-18T18:13:10.350Z,20.00
2022-10-18T18:16:11.262Z,20.00
2022-10-18T18:19:06.191Z,19.90
2022-10-18T18:27:16.777Z,19.70
2022-10-18T18:32:48.039Z,19.60
2022-10-18T18:35:39.153Z,19.50
2022-10-18T18:41:13.887Z,19.40
2022-10-18T18:46:46.437Z,19.40
2022-10-18T18:52:17.063Z,19.30
2022-10-18T18:55:09.927Z,19.40
2022-10-18T19:00:44.611Z,19.30
2022-10-18T19:03:35.970Z,19.30
2022-10-18T19:09:14.545Z,19.20
2022-10-18T19:12:05.668Z,19.10
2022-10-18T19:14:56.713Z,19.00
2022-10-18T19:17:49.026Z,19.00
2022-10-18T19:23:20.702Z,18.90
2022-10-18T19:26:13.141Z,18.90
2022-10-18T19:29:08.190Z,18.90
2022-10-18T19:34:40.151Z,18.90
2022-10-18T19:37:31.450Z,18.90
2022-10-18T19:43:05.531Z,18.80
2022-10-18T19:48:37.898Z,18.70
2022-10-18T19:51:29.297Z,18.70
2022-10-18T19:54:20.538Z,18.60
2022-10-18T19:57:11.749Z,18.60
2022-10-18T20:00:05.482Z,18.50
2022-10-18T20:02:57.463Z,18.50
2022-10-18T20:05:48.540Z,18.40
2022-10-18T20:08:40.133Z,18.40
2022-10-18T20:11:32.257Z,18.40
2022-10-18T20:17:03.212Z,18.30
2022-10-18T20:19:54.594Z,18.30
2022-10-18T20:22:45.728Z,18.30
2022-10-18T20:25:37.216Z,18.20
2022-10-18T20:31:11.454Z,18.20
2022-10-18T20:34:04.331Z,18.20
2022-10-18T20:39:35.269Z,18.10
2022-10-18T20:42:26.516Z,18.10
2022-10-18T20:45:17.689Z,18.10
2022-10-18T20:48:09.404Z,18.10
2022-10-18T20:53:42.541Z,18.00
2022-10-18T20:56:35.716Z,18.00
2022-10-18T21:02:11.542Z,18.00
2022-10-18T21:07:46.118Z,18.00
2022-10-18T21:13:17.713Z,18.00
2022-10-18T21:16:10.189Z,17.90
2022-10-18T21:21:46.005Z,17.90
2022-10-18T21:24:39.823Z,17.80
2022-10-18T21:27:32.691Z,17.80
2022-10-18T21:33:03.488Z,17.80
2022-10-18T21:38:33.874Z,17.70
2022-10-18T21:41:26.210Z,17.70
2022-10-18T21:44:19.446Z,17.70
2022-10-18T21:47:11.047Z,17.70
2022-10-18T21:52:42.060Z,17.70
2022-10-18T21:58:14.138Z,17.70
2022-10-18T22:03:45.001Z,17.70
2022-10-18T22:06:38.392Z,17.70
2022-10-18T22:09:29.959Z,17.60
2022-10-18T22:15:04.851Z,17.50
2022-10-18T22:17:56.617Z,17.50
2022-10-18T22:23:40.970Z,17.30
2022-10-18T22:29:15.786Z,17.30
2022-10-18T22:32:07.068Z,17.20
2022-10-18T22:37:41.259Z,17.20
2022-10-18T22:40:32.934Z,17.20
2022-10-18T22:43:24.519Z,17.20
2022-10-18T22:46:17.759Z,17.20
2022-10-18T22:51:47.477Z,17.20
2022-10-18T22:54:39.107Z,17.10
2022-10-18T22:57:31.496Z,17.00
2022-10-18T23:00:23.176Z,17.00
2022-10-18T23:05:55.690Z,16.90
2022-10-18T23:11:27.492Z,16.90
2022-10-18T23:17:00.140Z,16.90
2022-10-18T23:22:31.369Z,16.90
2022-10-18T23:25:23.185Z,16.90
2022-10-18T23:28:14.304Z,16.90
2022-10-18T23:31:11.150Z,16.90
2022-10-18T23:34:05.408Z,16.90
2022-10-18T23:39:37.554Z,16.70
2022-10-18T23:45:11.415Z,16.70
2022-10-18T23:48:02.375Z,16.70
2022-10-18T23:53:33.120Z,16.70
2022-10-18T23:56:24.186Z,16.60
